Time;durP1;ratioP1;P1;durP2;ratioP2;P2;SDS_P1;SDS_P2;PMS_P1;PMS_P2;Temp;Humidity;BMP_temperature;BMP_pressure;BME280_temperature;BME280_humidity;BME280_pressure;Samples;Min_cycle;Max_cycle;Signal;HPM_P1;HPM_P2
2022/09/20 00:08:31;;;;;;;;;;;;;;;;;;20776211;28;19941;-61
2022/09/20 00:18:32;;;;;;;;;;;;;;;;;;20775839;28;19972;-61
2022/09/20 00:28:34;;;;;;;;;;;;;;;;;;20777055;28;19964;-61
2022/09/20 00:38:35;;;;;;;;;;;;;;;;;;20776596;28;19926;-60
2022/09/20 00:48:37;;;;;;;;;;;;;;;;;;20777714;28;19949;-61
2022/09/20 00:58:38;;;;;;;;;;;;;;;;;;20773786;28;19963;-62
2022/09/20 01:08:40;;;;;;;;;;;;;;;;;;20773875;28;19936;-60
2022/09/20 01:18:42;;;;;;;;;;;;;;;;;;20759925;28;20274;-60
2022/09/20 01:28:46;;;;;;;;;;;;;;;;;;20759201;28;19940;-61
2022/09/20 01:38:51;;;;;;;;;;;;;;;;;;20758257;28;20040;-60
2022/09/20 01:48:54;;;;;;;;;;;;;;;;;;20758451;28;20012;-59
2022/09/20 01:58:57;;;;;;;;;;;;;;;;;;20757492;28;19926;-61
2022/09/20 02:09:00;;;;;;;;;;;;;;;;;;20756462;28;20452;-60
2022/09/20 02:19:07;;;;;;;;;;;;;;;;;;20755569;28;19925;-61
2022/09/20 02:29:11;;;;;;;;;;;;;;;;;;20754188;28;19929;-59
2022/09/20 02:39:16;;;;;;;;;;;;;;;;;;20754278;28;19950;-60
2022/09/20 02:49:21;;;;;;;;;;;;;;;;;;20753086;28;19929;-60
2022/09/20 02:59:24;;;;;;;;;;;;;;;;;;20752259;28;19925;-61
2022/09/20 03:09:27;;;;;;;;;;;;;;;;;;20752557;28;20337;-60
2022/09/20 03:19:32;;;;;;;;;;;;;;;;;;20751031;28;19936;-61
2022/09/20 03:29:35;;;;;;;;;;;;;;;;;;20750381;28;19925;-61
2022/09/20 03:39:37;;;;;;;;;;;;;;;;;;20750174;28;19944;-60
2022/09/20 03:49:40;;;;;;;;;;;;;;;;;;20751507;28;20424;-61
2022/09/20 03:59:42;;;;;;;;;;;;;;;;;;20750093;28;20381;-60
2022/09/20 04:09:44;;;;;;;;;;;;;;;;;;20748986;28;20366;-60
2022/09/20 04:19:46;;;;;;;;;;;;;;;;;;20748364;28;20328;-61
2022/09/20 04:29:49;;;;;;;;;;;;;;;;;;20747434;28;19926;-61
2022/09/20 04:39:51;;;;;;;;;;;;;;;;;;20747109;28;19937;-60
2022/09/20 04:49:53;;;;;;;;;;;;;;;;;;20756213;28;19933;-60
2022/09/20 04:59:55;;;;;;;;;;;;;;;;;;20761859;28;20271;-60
2022/09/20 05:09:57;;;;;;;;;;;;;;;;;;20761896;28;19955;-60
2022/09/20 05:20:01;;;;;;;;;;;;;;;;;;20760425;28;20124;-61
2022/09/20 05:30:05;;;;;;;;;;;;;;;;;;20759649;28;19926;-60
2022/09/20 05:40:07;;;;;;;;;;;;;;;;;;20758336;28;19949;-63
2022/09/20 05:50:09;;;;;;;;;;;;;;;;;;20758339;28;19968;-60
2022/09/20 06:00:12;;;;;;;;;;;;;;;;;;20756113;28;19925;-60
2022/09/20 06:10:14;;;;;;;;;;;;;;;;;;20756373;28;19926;-62
2022/09/20 06:20:16;;;;;;;;;;;;;;;;;;20755789;28;20389;-61
2022/09/20 06:30:18;;;;;;;;;;;;;;;;;;20755334;28;19972;-59
2022/09/20 06:50:43;;;;;;;;;;;;;;;;;;20752588;28;19929;-60
2022/09/20 07:00:44;;;;;;;;;;;;;;;;;;20751752;28;19933;-60
2022/09/20 07:10:47;;;;;;;;;;;;;;;;;;20750249;28;20024;-60
2022/09/20 07:20:48;;;;;;;;;;;;;;;;;;20751179;28;19929;-59
2022/09/20 07:30:51;;;;;;;;;;;;;;;;;;20749539;28;20374;-59
2022/09/20 07:40:53;;;;;;;;;;;;;;;;;;20750041;28;19926;-61
2022/09/20 07:50:55;;;;;;;;;;;;;;;;;;20748843;28;19948;-61
2022/09/20 08:00:57;;;;;;;;;;;;;;;;;;20748814;28;19925;-60
2022/09/20 08:10:59;;;;;;;;;;;;;;;;;;20749358;28;19933;-60
2022/09/20 08:21:01;;;;;;;;;;;;;;;;;;20751878;28;20481;-60
2022/09/20 08:31:03;;;;;;;;;;;;;;;;;;20726319;28;19926;-61
2022/09/20 08:41:06;;;;;;;;;;;;;;;;;;20742100;28;20417;-62
2022/09/20 08:51:08;;;;;;;;;;;;;;;;;;20754574;28;19926;-63
2022/09/20 09:01:12;;;;;;;;;;;;;;;;;;20755733;28;19940;-62
2022/09/20 09:11:14;;;;;;;;;;;;;;;;;;20753387;28;19925;-61
2022/09/20 09:21:18;;;;;;;;;;;;;;;;;;20754693;28;19926;-60
2022/09/20 09:31:21;;;;;;;;;;;;;;;;;;20756624;28;19929;-57
2022/09/20 09:41:25;;;;;;;;;;;;;;;;;;20758313;28;20285;-60
2022/09/20 09:51:27;;;;;;;;;;;;;;;;;;20705543;28;19933;-61
2022/09/20 10:01:29;;;;;;;;;;;;;;;;;;20768479;28;20383;-59
2022/09/20 10:11:33;;;;;;;;;;;;;;;;;;20751121;28;19929;-69
2022/09/20 10:21:37;;;;;;;;;;;;;;;;;;20753453;28;19925;-60
2022/09/20 10:31:39;;;;;;;;;;;;;;;;;;20753607;28;19933;-59
2022/09/20 10:52:08;;;;;;;;;;;;;;;;;;20581539;28;19941;-60
2022/09/20 11:02:11;;;;;;;;;;;;;;;;;;20579975;28;20021;-60
2022/09/20 11:12:15;;;;;;;;;;;;;;;;;;20580199;28;20399;-69
2022/09/20 11:22:17;;;;;;;;;;;;;;;;;;20614593;28;19960;-66
2022/09/20 11:32:19;;;;;;;;;;;;;;;;;;20749637;28;19925;-62
2022/09/20 11:42:21;;;;;;;;;;;;;;;;;;20751359;28;19929;-72
2022/09/20 11:52:24;;;;;;;;;;;;;;;;;;20751042;28;19926;-69
2022/09/20 12:02:27;;;;;;;;;;;;;;;;;;20736552;28;19941;-60
2022/09/20 12:12:30;;;;;;;;;;;;;;;;;;20747874;28;19940;-63
2022/09/20 12:22:32;;;;;;;;;;;;;;;;;;20747603;28;19932;-64
2022/09/20 12:32:34;;;;;;;;;;;;;;;;;;20747197;28;20020;-61
2022/09/20 12:42:35;;;;;;;;;;;;;;;;;;20748047;28;20259;-61
2022/09/20 12:52:49;;;;;;;;;;;;;;;;;;20747733;28;19926;-65
2022/09/20 13:02:52;;;;;;;;;;;;;;;;;;20747975;28;20380;-66
2022/09/20 13:12:54;;;;;;;;;;;;;;;;;;20758761;28;20306;-62
2022/09/20 13:22:56;;;;;;;;;;;;;;;;;;20761497;28;19956;-61
2022/09/20 13:33:01;;;;;;;;;;;;;;;;;;20759036;28;20314;-64
2022/09/20 13:43:05;;;;;;;;;;;;;;;;;;20759155;28;19933;-66
2022/09/20 13:53:07;;;;;;;;;;;;;;;;;;20758781;28;20008;-65
2022/09/20 14:03:09;;;;;;;;;;;;;;;;;;20757869;28;20378;-61
2022/09/20 14:13:12;;;;;;;;;;;;;;;;;;20755780;28;20016;-63
2022/09/20 14:23:14;;;;;;;;;;;;;;;;;;20755133;28;20374;-65
2022/09/20 14:33:17;;;;;;;;;;;;;;;;;;20754266;28;19949;-65
2022/09/20 14:43:18;;;;;;;;;;;;;;;;;;20754796;28;20029;-63
2022/09/20 14:53:21;;;;;;;;;;;;;;;;;;20752794;28;19925;-63
2022/09/20 15:03:22;;;;;;;;;;;;;;;;;;20752579;28;20008;-61
2022/09/20 15:13:24;;;;;;;;;;;;;;;;;;20756281;28;20023;-61
2022/09/20 15:23:26;;;;;;;;;;;;;;;;;;20752043;28;19964;-60
2022/09/20 15:33:28;;;;;;;;;;;;;;;;;;20690181;28;19926;-61
2022/09/20 15:43:30;;;;;;;;;;;;;;;;;;20668465;28;19976;-65
2022/09/20 15:53:33;;;;;;;;;;;;;;;;;;20668841;28;19930;-60
2022/09/20 16:03:35;;;;;;;;;;;;;;;;;;20668059;28;20385;-60
2022/09/20 16:13:37;;;;;;;;;;;;;;;;;;20684366;28;20424;-60
2022/09/20 16:23:39;;;;;;;;;;;;;;;;;;20710044;28;20373;-60
2022/09/20 16:33:41;;;;;;;;;;;;;;;;;;20765599;28;19987;-60
2022/09/20 16:43:44;;;;;;;;;;;;;;;;;;20806555;28;19926;-61
2022/09/20 16:53:45;;;;;;;;;;;;;;;;;;20780288;28;19925;-71
2022/09/20 17:03:47;;;;;;;;;;;;;;;;;;20760456;28;19991;-62
2022/09/20 17:13:52;;;;;;;;;;;;;;;;;;20761279;28;19925;-63
2022/09/20 17:23:54;;;;;;;;;;;;;;;;;;20759721;28;19925;-61
2022/09/20 17:33:58;;;;;;;;;;;;;;;;;;20757460;28;19940;-63
2022/09/20 17:44:01;;;;;;;;;;;;;;;;;;20758171;28;20010;-63
2022/09/20 17:54:03;;;;;;;;;;;;;;;;;;20754778;28;20348;-62
2022/09/20 18:04:05;;;;;;;;;;;;;;;;;;20756047;28;19933;-71
2022/09/20 18:14:09;;;;;;;;;;;;;;;;;;20757575;28;19925;-67
2022/09/20 18:24:11;;;;;;;;;;;;;;;;;;20755952;28;19926;-62
2022/09/20 18:34:17;;;;;;;;;;;;;;;;;;20757195;28;19925;-64
2022/09/20 18:44:19;;;;;;;;;;;;;;;;;;20755194;28;19926;-63
2022/09/20 18:54:21;;;;;;;;;;;;;;;;;;20753436;28;19940;-61
2022/09/20 19:04:23;;;;;;;;;;;;;;;;;;20752198;28;19925;-59
2022/09/20 19:14:26;;;;;;;;;;;;;;;;;;20752093;28;20382;-62
2022/09/20 19:24:28;;;;;;;;;;;;;;;;;;20750467;28;20009;-58
2022/09/20 19:34:31;;;;;;;;;;;;;;;;;;20750158;28;19925;-68
2022/09/20 19:44:33;;;;;;;;;;;;;;;;;;20750697;28;19929;-62
2022/09/20 19:54:37;;;;;;;;;;;;;;;;;;20750517;28;20302;-67
2022/09/20 20:04:39;;;;;;;;;;;;;;;;;;20749646;28;19987;-66
2022/09/20 20:14:41;;;;;;;;;;;;;;;;;;20750573;28;19932;-66
2022/09/20 20:24:44;;;;;;;;;;;;;;;;;;20764488;28;19933;-61
2022/09/20 20:34:45;;;;;;;;;;;;;;;;;;20766313;28;20016;-61
2022/09/20 20:44:47;;;;;;;;;;;;;;;;;;20767084;28;19980;-64
2022/09/20 20:54:48;;;;;;;;;;;;;;;;;;20762732;28;19926;-63
2022/09/20 21:04:50;;;;;;;;;;;;;;;;;;20762213;28;20012;-60
2022/09/20 21:14:53;;;;;;;;;;;;;;;;;;20760803;28;19926;-59
2022/09/20 21:24:55;;;;;;;;;;;;;;;;;;20761101;28;20278;-60
2022/09/20 21:34:58;;;;;;;;;;;;;;;;;;20757853;28;19926;-60
2022/09/20 21:45:02;;;;;;;;;;;;;;;;;;20761344;28;19926;-59
2022/09/20 21:55:05;;;;;;;;;;;;;;;;;;20760838;28;19964;-67
2022/09/20 22:05:08;;;;;;;;;;;;;;;;;;20762195;28;19926;-62
2022/09/20 22:15:09;;;;;;;;;;;;;;;;;;20761764;28;19968;-61
2022/09/20 22:25:12;;;;;;;;;;;;;;;;;;20758545;28;19929;-61
2022/09/20 22:35:14;;;;;;;;;;;;;;;;;;20754377;28;19957;-59
2022/09/20 22:45:16;;;;;;;;;;;;;;;;;;20753990;28;19925;-57
2022/09/20 22:55:17;;;;;;;;;;;;;;;;;;20754196;28;19961;-62
2022/09/20 23:05:20;;;;;;;;;;;;;;;;;;20752924;28;19926;-62
2022/09/20 23:15:22;;;;;;;;;;;;;;;;;;20752261;28;19929;-67
2022/09/20 23:25:26;;;;;;;;;;;;;;;;;;20750891;28;20116;-59
2022/09/20 23:35:29;;;;;;;;;;;;;;;;;;20750423;28;19931;-60
2022/09/20 23:45:31;;;;;;;;;;;;;;;;;;20750163;28;19980;-62
2022/09/20 23:55:33;;;;;;;;;;;;;;;;;;20748595;28;20027;-66
